createdAt,value
2018-06-05T00:04:49.611Z,18
2018-06-05T00:09:49.569Z,20
2018-06-05T00:14:49.359Z,19
2018-06-05T00:19:49.609Z,17
2018-06-05T00:24:50.696Z,17
2018-06-05T00:29:49.713Z,16
2018-06-05T00:34:49.442Z,16
2018-06-05T00:39:49.412Z,16
2018-06-05T00:44:49.510Z,13
2018-06-05T00:49:49.575Z,15
2018-06-05T00:54:49.658Z,18
2018-06-05T00:59:49.607Z,16
2018-06-05T01:04:49.427Z,16
2018-06-05T01:09:49.488Z,16
2018-06-05T01:14:49.222Z,14
2018-06-05T01:19:49.542Z,12
2018-06-05T01:24:49.588Z,12
2018-06-05T01:29:49.562Z,12
2018-06-05T01:34:49.415Z,12
2018-06-05T01:39:49.378Z,12
2018-06-05T01:44:49.363Z,13
2018-06-05T01:49:49.495Z,13
2018-06-05T01:54:49.309Z,10
2018-06-05T01:59:49.267Z,14
2018-06-05T02:04:49.354Z,13
2018-06-05T02:09:49.205Z,14
2018-06-05T02:14:49.429Z,14
2018-06-05T02:19:49.131Z,12
2018-06-05T02:24:49.712Z,13
2018-06-05T02:29:49.253Z,14
2018-06-05T02:34:49.308Z,13
2018-06-05T02:39:49.224Z,13
2018-06-05T02:44:49.187Z,14
2018-06-05T02:49:49.289Z,13
2018-06-05T02:54:49.400Z,13
2018-06-05T02:59:49.284Z,13
2018-06-05T03:04:49.385Z,13
2018-06-05T03:09:49.229Z,13
2018-06-05T03:14:48.962Z,15
2018-06-05T03:19:49.082Z,15
2018-06-05T03:24:49.187Z,16
2018-06-05T03:29:49.034Z,16
2018-06-05T03:34:48.937Z,14
2018-06-05T03:39:48.944Z,14
2018-06-05T03:44:49.063Z,14
2018-06-05T03:49:49.128Z,14
2018-06-05T03:54:48.951Z,14
2018-06-05T03:59:49.041Z,14
2018-06-05T04:04:48.955Z,16
2018-06-05T04:09:49.132Z,16
2018-06-05T04:14:48.986Z,17
2018-06-05T04:19:48.873Z,17
2018-06-05T04:24:48.846Z,16
2018-06-05T04:29:49.150Z,13
2018-06-05T04:34:48.839Z,15
2018-06-05T04:39:48.927Z,15
2018-06-05T04:44:48.958Z,16
2018-06-05T04:49:48.921Z,12
2018-06-05T04:54:48.794Z,12
2018-06-05T04:59:49.100Z,12
2018-06-05T05:04:48.813Z,13
2018-06-05T05:09:49.105Z,13
2018-06-05T05:14:49.066Z,14
2018-06-05T05:19:48.775Z,16
2018-06-05T05:24:48.748Z,14
2018-06-05T05:29:48.948Z,12
2018-06-05T05:34:48.875Z,12
2018-06-05T05:39:48.788Z,12
2018-06-05T05:44:48.797Z,13
2018-06-05T05:49:48.830Z,13
2018-06-05T05:54:49.016Z,13
2018-06-05T05:59:48.766Z,13
2018-06-05T06:04:48.777Z,13
2018-06-05T06:09:48.833Z,13
2018-06-05T06:14:48.808Z,12
2018-06-05T06:19:49.011Z,12
2018-06-05T06:24:48.862Z,12
2018-06-05T06:29:48.794Z,12
2018-06-05T06:34:48.831Z,12
2018-06-05T06:39:48.724Z,12
2018-06-05T06:44:48.696Z,12
2018-06-05T06:49:49.036Z,9
2018-06-05T06:54:48.740Z,9
2018-06-05T06:59:48.985Z,12
2018-06-05T07:04:48.755Z,11
2018-06-05T07:09:48.714Z,10
2018-06-05T07:14:48.608Z,10
2018-06-05T07:19:48.868Z,11
2018-06-05T07:24:48.723Z,11
2018-06-05T07:29:48.731Z,10
2018-06-05T07:34:48.615Z,12
2018-06-05T07:39:48.691Z,10
2018-06-05T07:44:48.633Z,11
2018-06-05T07:49:48.707Z,8
2018-06-05T07:54:48.835Z,10
2018-06-05T07:59:48.854Z,10
2018-06-05T08:04:48.962Z,10
2018-06-05T08:09:48.896Z,10
2018-06-05T08:14:48.824Z,10
2018-06-05T08:19:48.813Z,11
2018-06-05T08:24:48.877Z,12
2018-06-05T08:29:48.836Z,12
2018-06-05T08:34:48.776Z,12
2018-06-05T08:39:49.070Z,11
2018-06-05T08:44:48.832Z,10
2018-06-05T08:49:48.514Z,10
2018-06-05T08:54:48.785Z,9
2018-06-05T08:59:48.779Z,8
2018-06-05T09:04:48.589Z,11
2018-06-05T09:09:48.696Z,11
2018-06-05T09:14:48.583Z,12
2018-06-05T09:19:48.609Z,8
2018-06-05T09:24:48.501Z,8
2018-06-05T09:29:48.536Z,11
2018-06-05T09:34:48.489Z,9
2018-06-05T09:39:48.713Z,9
2018-06-05T09:44:48.561Z,8
2018-06-05T09:49:48.642Z,9
2018-06-05T09:54:48.507Z,8
2018-06-05T09:59:48.502Z,7
2018-06-05T10:04:48.499Z,9
2018-06-05T10:09:48.542Z,9
2018-06-05T10:14:48.438Z,8
2018-06-05T10:19:48.466Z,9
2018-06-05T10:24:48.610Z,9
2018-06-05T10:29:48.487Z,9
2018-06-05T10:34:48.687Z,7
2018-06-05T10:39:48.415Z,10
2018-06-05T10:44:48.438Z,8
2018-06-05T10:49:48.501Z,8
2018-06-05T10:54:48.644Z,10
2018-06-05T10:59:48.325Z,9
2018-06-05T11:04:48.308Z,10
2018-06-05T11:09:48.498Z,10
2018-06-05T11:14:48.413Z,10
2018-06-05T11:19:48.362Z,8
2018-06-05T11:24:48.397Z,8
2018-06-05T11:29:48.297Z,10
2018-06-05T11:34:48.411Z,8
2018-06-05T11:39:48.597Z,8
2018-06-05T11:44:48.416Z,8
2018-06-05T11:49:48.576Z,11
2018-06-05T11:54:48.383Z,12
2018-06-05T11:59:48.269Z,10
2018-06-05T12:04:48.156Z,10
2018-06-05T12:09:48.554Z,9
2018-06-05T12:14:48.374Z,10
2018-06-05T12:19:48.185Z,10
2018-06-05T12:24:48.278Z,10
2018-06-05T12:29:48.524Z,10
2018-06-05T12:34:48.278Z,10
2018-06-05T12:39:48.391Z,10
2018-06-05T12:44:48.114Z,10
2018-06-05T12:49:48.293Z,10
2018-06-05T12:54:48.235Z,9
2018-06-05T12:59:48.379Z,11
2018-06-05T13:04:48.359Z,8
2018-06-05T13:09:48.078Z,10
2018-06-05T13:14:48.451Z,8
2018-06-05T13:19:48.205Z,8
2018-06-05T13:24:48.240Z,8
2018-06-05T13:29:48.340Z,8
2018-06-05T13:34:48.294Z,8
2018-06-05T13:39:48.393Z,7
2018-06-05T13:44:48.061Z,7
2018-06-05T13:49:48.140Z,7
2018-06-05T13:54:48.117Z,8
2018-06-05T13:59:48.175Z,8
2018-06-05T14:04:48.270Z,8
2018-06-05T14:09:48.366Z,7
2018-06-05T14:14:48.217Z,7
2018-06-05T14:19:48.235Z,6
2018-06-05T14:24:48.103Z,6
2018-06-05T14:29:48.206Z,6
2018-06-05T14:34:48.227Z,7
2018-06-05T14:39:48.268Z,6
2018-06-05T14:44:48.224Z,5
2018-06-05T14:49:48.088Z,8
2018-06-05T14:54:48.213Z,8
2018-06-05T14:59:48.064Z,8
2018-06-05T15:04:48.119Z,8
2018-06-05T15:09:47.959Z,7
2018-06-05T15:14:48.199Z,7
2018-06-05T15:19:48.139Z,7
2018-06-05T15:24:48.206Z,7
2018-06-05T15:29:48.028Z,8
2018-06-05T15:34:47.920Z,8
2018-06-05T15:39:47.900Z,7
2018-06-05T15:44:48.141Z,8
2018-06-05T15:49:48.115Z,8
2018-06-05T15:54:48.043Z,6
2018-06-05T15:59:47.982Z,6
2018-06-05T16:04:47.943Z,8
2018-06-05T16:09:48.047Z,7
2018-06-05T16:14:47.939Z,8
2018-06-05T16:19:48.016Z,9
2018-06-05T16:24:48.089Z,9
2018-06-05T16:29:47.951Z,8
2018-06-05T16:34:47.837Z,11
2018-06-05T16:39:48.321Z,9
2018-06-05T16:44:48.030Z,9
2018-06-05T16:49:47.971Z,9
2018-06-05T16:54:48.078Z,9
2018-06-05T16:59:47.981Z,10
2018-06-05T17:04:48.082Z,12
2018-06-05T17:09:48.104Z,12
2018-06-05T17:14:48.015Z,8
2018-06-05T17:19:48.007Z,11
2018-06-05T17:24:47.777Z,10
2018-06-05T17:29:47.998Z,17
2018-06-05T17:34:47.826Z,17
2018-06-05T17:39:47.795Z,17
2018-06-05T17:44:47.912Z,17
2018-06-05T17:49:47.831Z,12
2018-06-05T17:54:48.078Z,11
2018-06-05T17:59:48.054Z,9
2018-06-05T18:04:47.763Z,9
2018-06-05T18:09:47.734Z,11
2018-06-05T18:14:47.636Z,11
2018-06-05T18:19:47.764Z,10
2018-06-05T18:24:48.071Z,9
2018-06-05T18:29:47.647Z,11
2018-06-05T18:34:47.776Z,12
2018-06-05T18:39:47.914Z,9
2018-06-05T18:44:48.848Z,11
2018-06-05T18:49:47.734Z,12
2018-06-05T18:54:47.636Z,10
2018-06-05T18:59:48.041Z,11
2018-06-05T19:04:47.684Z,11
2018-06-05T19:09:47.960Z,10
2018-06-05T19:14:47.585Z,10
2018-06-05T19:19:47.644Z,9
2018-06-05T19:24:47.580Z,11
2018-06-05T19:29:47.807Z,11
2018-06-05T19:34:47.848Z,10
2018-06-05T19:39:47.927Z,10
2018-06-05T19:44:47.521Z,11
2018-06-05T19:49:47.820Z,11
2018-06-05T19:54:47.686Z,10
2018-06-05T19:59:47.672Z,10
2018-06-05T20:04:47.621Z,12
2018-06-05T20:09:47.764Z,12
2018-06-05T20:14:47.786Z,10
2018-06-05T20:19:47.716Z,12
2018-06-05T20:24:47.749Z,11
2018-06-05T20:29:47.812Z,9
2018-06-05T20:34:47.537Z,10
2018-06-05T20:39:47.520Z,9
2018-06-05T20:44:47.613Z,10
2018-06-05T20:49:47.717Z,12
2018-06-05T20:54:47.633Z,10
2018-06-05T20:59:47.650Z,11
2018-06-05T21:04:47.435Z,9
2018-06-05T21:09:47.555Z,9
2018-06-05T21:14:47.691Z,8
2018-06-05T21:19:47.576Z,9
2018-06-05T21:24:47.441Z,9
2018-06-05T21:29:47.684Z,9
2018-06-05T21:34:47.690Z,9
2018-06-05T21:39:47.431Z,9
2018-06-05T21:44:47.494Z,0
2018-06-05T21:49:47.865Z,12
2018-06-05T21:54:47.490Z,9
2018-06-05T21:59:47.639Z,9
2018-06-05T22:04:47.533Z,10
2018-06-05T22:09:47.432Z,9
2018-06-05T22:14:47.538Z,9
2018-06-05T22:19:47.475Z,11
2018-06-05T22:24:47.564Z,11
2018-06-05T22:29:47.333Z,9
2018-06-05T22:34:47.724Z,9
2018-06-05T22:39:47.384Z,7
2018-06-05T22:44:47.299Z,10
2018-06-05T22:49:47.610Z,10
2018-06-05T22:54:47.355Z,8
2018-06-05T22:59:47.595Z,10
2018-06-05T23:04:47.314Z,10
2018-06-05T23:09:47.534Z,10
2018-06-05T23:14:47.381Z,8
2018-06-05T23:19:47.423Z,10
2018-06-05T23:24:47.546Z,10
2018-06-05T23:29:47.500Z,10
2018-06-05T23:34:47.340Z,10
2018-06-05T23:39:47.525Z,11
2018-06-05T23:44:47.388Z,11
2018-06-05T23:49:47.390Z,11
2018-06-05T23:54:47.180Z,11
2018-06-05T23:59:47.190Z,8
